sensor_id;sensor_type;location;lat;lon;timestamp;temperature;humidity
47022;DHT22;32779;52.264;6.154;2023-06-22T00:01:09;19.10;99.90
47022;DHT22;32779;52.264;6.154;2023-06-22T00:03:35;19.10;99.90
47022;DHT22;32779;52.264;6.154;2023-06-22T00:06:01;19.00;99.90
47022;DHT22;32779;52.264;6.154;2023-06-22T00:08:26;19.00;99.90
47022;DHT22;32779;52.264;6.154;2023-06-22T00:10:52;18.90;99.90
47022;DHT22;32779;52.264;6.154;2023-06-22T00:13:17;18.90;99.90
47022;DHT22;32779;52.264;6.154;2023-06-22T00:15:43;18.90;99.90
47022;DHT22;32779;52.264;6.154;2023-06-22T00:18:10;18.80;99.90
47022;DHT22;32779;52.264;6.154;2023-06-22T00:20:36;18.80;99.90
47022;DHT22;32779;52.264;6.154;2023-06-22T00:23:03;18.70;99.90
47022;DHT22;32779;52.264;6.154;2023-06-22T00:25:37;18.70;99.90
47022;DHT22;32779;52.264;6.154;2023-06-22T00:28:03;18.70;99.90
47022;DHT22;32779;52.264;6.154;2023-06-22T00:30:30;18.70;99.90
47022;DHT22;32779;52.264;6.154;2023-06-22T00:32:56;18.70;99.90
47022;DHT22;32779;52.264;6.154;2023-06-22T00:35:22;18.60;99.90
47022;DHT22;32779;52.264;6.154;2023-06-22T00:37:47;18.60;99.90
47022;DHT22;32779;52.264;6.154;2023-06-22T00:40:13;18.50;99.90
47022;DHT22;32779;52.264;6.154;2023-06-22T00:42:40;18.40;99.90
47022;DHT22;32779;52.264;6.154;2023-06-22T00:45:07;18.40;99.90
47022;DHT22;32779;52.264;6.154;2023-06-22T00:47:34;18.40;99.90
47022;DHT22;32779;52.264;6.154;2023-06-22T00:50:01;18.40;99.90
47022;DHT22;32779;52.264;6.154;2023-06-22T00:52:28;18.30;99.90
47022;DHT22;32779;52.264;6.154;2023-06-22T00:54:57;18.20;99.90
47022;DHT22;32779;52.264;6.154;2023-06-22T00:57:24;18.20;99.90
47022;DHT22;32779;52.264;6.154;2023-06-22T00:59:53;18.20;99.90
47022;DHT22;32779;52.264;6.154;2023-06-22T01:02:19;18.10;99.90
47022;DHT22;32779;52.264;6.154;2023-06-22T01:04:45;18.10;99.90
47022;DHT22;32779;52.264;6.154;2023-06-22T01:12:45;18.00;99.90
47022;DHT22;32779;52.264;6.154;2023-06-22T01:15:23;18.00;99.90
47022;DHT22;32779;52.264;6.154;2023-06-22T01:17:52;18.10;99.90
47022;DHT22;32779;52.264;6.154;2023-06-22T01:20:20;18.00;99.90
47022;DHT22;32779;52.264;6.154;2023-06-22T01:28:32;17.90;99.90
47022;DHT22;32779;52.264;6.154;2023-06-22T01:30:59;18.00;99.90
47022;DHT22;32779;52.264;6.154;2023-06-22T01:33:33;17.90;99.90
47022;DHT22;32779;52.264;6.154;2023-06-22T01:36:01;17.90;99.90
47022;DHT22;32779;52.264;6.154;2023-06-22T01:38:28;17.90;99.90
47022;DHT22;32779;52.264;6.154;2023-06-22T01:40:56;17.80;99.90
47022;DHT22;32779;52.264;6.154;2023-06-22T01:43:25;17.70;99.90
47022;DHT22;32779;52.264;6.154;2023-06-22T01:45:52;17.70;99.90
47022;DHT22;32779;52.264;6.154;2023-06-22T01:48:19;17.70;99.90
47022;DHT22;32779;52.264;6.154;2023-06-22T01:50:45;17.70;99.90
47022;DHT22;32779;52.264;6.154;2023-06-22T01:53:10;17.60;99.90
47022;DHT22;32779;52.264;6.154;2023-06-22T01:55:36;17.60;99.90
47022;DHT22;32779;52.264;6.154;2023-06-22T01:58:02;17.70;99.90
47022;DHT22;32779;52.264;6.154;2023-06-22T02:00:28;17.60;99.90
47022;DHT22;32779;52.264;6.154;2023-06-22T02:02:59;17.60;99.90
47022;DHT22;32779;52.264;6.154;2023-06-22T02:05:33;17.50;99.90
47022;DHT22;32779;52.264;6.154;2023-06-22T02:08:10;17.50;99.90
47022;DHT22;32779;52.264;6.154;2023-06-22T02:10:37;17.50;99.90
47022;DHT22;32779;52.264;6.154;2023-06-22T02:13:06;17.50;99.90
47022;DHT22;32779;52.264;6.154;2023-06-22T02:15:33;17.40;99.90
47022;DHT22;32779;52.264;6.154;2023-06-22T02:17:59;17.50;99.90
47022;DHT22;32779;52.264;6.154;2023-06-22T02:20:25;17.40;99.90
47022;DHT22;32779;52.264;6.154;2023-06-22T02:23:00;17.40;99.90
47022;DHT22;32779;52.264;6.154;2023-06-22T02:25:26;17.40;99.90
47022;DHT22;32779;52.264;6.154;2023-06-22T02:27:51;17.40;99.90
47022;DHT22;32779;52.264;6.154;2023-06-22T02:30:17;17.40;99.90
47022;DHT22;32779;52.264;6.154;2023-06-22T02:32:42;17.40;99.90
47022;DHT22;32779;52.264;6.154;2023-06-22T02:35:09;17.40;99.90
47022;DHT22;32779;52.264;6.154;2023-06-22T02:37:36;17.40;99.90
47022;DHT22;32779;52.264;6.154;2023-06-22T02:40:07;17.40;99.90
47022;DHT22;32779;52.264;6.154;2023-06-22T02:42:35;17.40;99.90
47022;DHT22;32779;52.264;6.154;2023-06-22T02:45:02;17.40;99.90
47022;DHT22;32779;52.264;6.154;2023-06-22T02:47:28;17.40;99.90
47022;DHT22;32779;52.264;6.154;2023-06-22T02:49:54;17.40;99.90
47022;DHT22;32779;52.264;6.154;2023-06-22T02:52:19;17.40;99.90
47022;DHT22;32779;52.264;6.154;2023-06-22T02:54:45;17.30;99.90
47022;DHT22;32779;52.264;6.154;2023-06-22T02:57:13;17.30;99.90
47022;DHT22;32779;52.264;6.154;2023-06-22T02:59:40;17.30;99.90
47022;DHT22;32779;52.264;6.154;2023-06-22T03:02:07;17.20;99.90
47022;DHT22;32779;52.264;6.154;2023-06-22T03:04:33;17.20;99.90
47022;DHT22;32779;52.264;6.154;2023-06-22T03:06:59;17.20;99.90
47022;DHT22;32779;52.264;6.154;2023-06-22T03:09:27;17.20;99.90
47022;DHT22;32779;52.264;6.154;2023-06-22T03:11:56;17.10;99.90
47022;DHT22;32779;52.264;6.154;2023-06-22T03:14:21;17.20;99.90
47022;DHT22;32779;52.264;6.154;2023-06-22T03:16:47;17.20;99.90
47022;DHT22;32779;52.264;6.154;2023-06-22T03:19:13;17.10;99.90
47022;DHT22;32779;52.264;6.154;2023-06-22T03:21:39;17.20;99.90
47022;DHT22;32779;52.264;6.154;2023-06-22T03:24:06;17.20;99.90
47022;DHT22;32779;52.264;6.154;2023-06-22T03:26:32;17.30;99.90
47022;DHT22;32779;52.264;6.154;2023-06-22T03:28:58;17.30;99.90
47022;DHT22;32779;52.264;6.154;2023-06-22T03:31:23;17.30;99.90
47022;DHT22;32779;52.264;6.154;2023-06-22T03:33:49;17.30;99.90
47022;DHT22;32779;52.264;6.154;2023-06-22T03:36:16;17.30;99.90
47022;DHT22;32779;52.264;6.154;2023-06-22T03:38:45;17.30;99.90
47022;DHT22;32779;52.264;6.154;2023-06-22T03:41:11;17.30;99.90
47022;DHT22;32779;52.264;6.154;2023-06-22T03:43:36;17.30;99.90
47022;DHT22;32779;52.264;6.154;2023-06-22T03:46:02;17.30;99.90
47022;DHT22;32779;52.264;6.154;2023-06-22T03:48:27;17.40;99.90
47022;DHT22;32779;52.264;6.154;2023-06-22T03:51:02;17.30;99.90
47022;DHT22;32779;52.264;6.154;2023-06-22T03:53:31;17.40;99.90
47022;DHT22;32779;52.264;6.154;2023-06-22T03:55:57;17.40;99.90
47022;DHT22;32779;52.264;6.154;2023-06-22T03:58:22;17.40;99.90
47022;DHT22;32779;52.264;6.154;2023-06-22T04:00:49;17.40;99.90
47022;DHT22;32779;52.264;6.154;2023-06-22T04:03:15;17.30;99.90
47022;DHT22;32779;52.264;6.154;2023-06-22T04:05:41;17.30;99.90
47022;DHT22;32779;52.264;6.154;2023-06-22T04:08:07;17.30;99.90
47022;DHT22;32779;52.264;6.154;2023-06-22T04:10:33;17.30;99.90
47022;DHT22;32779;52.264;6.154;2023-06-22T04:12:59;17.40;99.90
47022;DHT22;32779;52.264;6.154;2023-06-22T04:15:24;17.30;99.90
47022;DHT22;32779;52.264;6.154;2023-06-22T04:17:50;17.30;99.90
47022;DHT22;32779;52.264;6.154;2023-06-22T04:20:16;17.30;99.90
47022;DHT22;32779;52.264;6.154;2023-06-22T04:22:41;17.30;99.90
47022;DHT22;32779;52.264;6.154;2023-06-22T04:25:07;17.20;99.90
47022;DHT22;32779;52.264;6.154;2023-06-22T04:27:36;17.30;99.90
47022;DHT22;32779;52.264;6.154;2023-06-22T04:30:08;17.30;99.90
47022;DHT22;32779;52.264;6.154;2023-06-22T04:32:37;17.30;99.90
47022;DHT22;32779;52.264;6.154;2023-06-22T04:35:03;17.30;99.90
47022;DHT22;32779;52.264;6.154;2023-06-22T04:37:32;17.40;99.90
47022;DHT22;32779;52.264;6.154;2023-06-22T04:39:58;17.40;99.90
47022;DHT22;32779;52.264;6.154;2023-06-22T04:42:30;17.50;99.90
47022;DHT22;32779;52.264;6.154;2023-06-22T04:44:58;17.50;99.90
47022;DHT22;32779;52.264;6.154;2023-06-22T04:47:23;17.50;99.90
47022;DHT22;32779;52.264;6.154;2023-06-22T04:49:49;17.50;99.90
47022;DHT22;32779;52.264;6.154;2023-06-22T04:52:15;17.50;99.90
47022;DHT22;32779;52.264;6.154;2023-06-22T04:54:43;17.60;99.90
47022;DHT22;32779;52.264;6.154;2023-06-22T04:57:21;17.60;99.90
47022;DHT22;32779;52.264;6.154;2023-06-22T04:59:50;17.60;99.90
47022;DHT22;32779;52.264;6.154;2023-06-22T05:02:15;17.70;99.90
47022;DHT22;32779;52.264;6.154;2023-06-22T05:04:41;17.70;99.90
47022;DHT22;32779;52.264;6.154;2023-06-22T05:07:10;17.80;99.90
47022;DHT22;32779;52.264;6.154;2023-06-22T05:09:35;17.80;99.90
47022;DHT22;32779;52.264;6.154;2023-06-22T05:12:02;17.90;99.90
47022;DHT22;32779;52.264;6.154;2023-06-22T05:14:31;18.00;99.90
47022;DHT22;32779;52.264;6.154;2023-06-22T05:16:57;18.00;99.90
47022;DHT22;32779;52.264;6.154;2023-06-22T05:19:32;18.10;99.90
47022;DHT22;32779;52.264;6.154;2023-06-22T05:21:58;18.10;99.90
47022;DHT22;32779;52.264;6.154;2023-06-22T05:24:24;18.10;99.90
47022;DHT22;32779;52.264;6.154;2023-06-22T05:26:49;18.20;99.90
47022;DHT22;32779;52.264;6.154;2023-06-22T05:29:15;18.30;99.90
47022;DHT22;32779;52.264;6.154;2023-06-22T05:31:40;18.40;99.90
47022;DHT22;32779;52.264;6.154;2023-06-22T05:34:06;18.50;99.90
47022;DHT22;32779;52.264;6.154;2023-06-22T05:36:32;18.50;99.90
47022;DHT22;32779;52.264;6.154;2023-06-22T05:38:58;18.60;99.90
47022;DHT22;32779;52.264;6.154;2023-06-22T05:41:23;18.70;99.90
47022;DHT22;32779;52.264;6.154;2023-06-22T05:43:49;18.80;99.90
47022;DHT22;32779;52.264;6.154;2023-06-22T05:46:17;18.80;99.90
47022;DHT22;32779;52.264;6.154;2023-06-22T05:48:42;18.80;99.90
47022;DHT22;32779;52.264;6.154;2023-06-22T05:51:08;18.90;99.90
47022;DHT22;32779;52.264;6.154;2023-06-22T05:53:34;19.10;99.90
47022;DHT22;32779;52.264;6.154;2023-06-22T05:55:59;19.20;99.90
47022;DHT22;32779;52.264;6.154;2023-06-22T05:58:25;19.30;99.90
47022;DHT22;32779;52.264;6.154;2023-06-22T06:00:51;19.40;99.90
47022;DHT22;32779;52.264;6.154;2023-06-22T06:03:16;19.50;99.90
47022;DHT22;32779;52.264;6.154;2023-06-22T06:05:43;19.60;99.90
47022;DHT22;32779;52.264;6.154;2023-06-22T06:08:10;19.70;99.90
47022;DHT22;32779;52.264;6.154;2023-06-22T06:10:36;19.90;99.90
47022;DHT22;32779;52.264;6.154;2023-06-22T06:13:02;20.00;99.90
47022;DHT22;32779;52.264;6.154;2023-06-22T06:15:30;20.10;99.90
47022;DHT22;32779;52.264;6.154;2023-06-22T06:17:55;20.20;99.90
47022;DHT22;32779;52.264;6.154;2023-06-22T06:20:23;20.30;99.90
47022;DHT22;32779;52.264;6.154;2023-06-22T06:22:49;20.40;99.90
47022;DHT22;32779;52.264;6.154;2023-06-22T06:25:16;20.50;99.90
47022;DHT22;32779;52.264;6.154;2023-06-22T06:27:48;20.50;99.90
47022;DHT22;32779;52.264;6.154;2023-06-22T06:30:16;20.50;99.90
47022;DHT22;32779;52.264;6.154;2023-06-22T06:32:42;20.60;99.90
47022;DHT22;32779;52.264;6.154;2023-06-22T06:35:09;20.70;99.90
47022;DHT22;32779;52.264;6.154;2023-06-22T06:37:40;20.80;99.90
47022;DHT22;32779;52.264;6.154;2023-06-22T06:40:10;20.90;99.90
47022;DHT22;32779;52.264;6.154;2023-06-22T06:42:54;21.00;99.90
47022;DHT22;32779;52.264;6.154;2023-06-22T06:45:24;21.20;99.90
47022;DHT22;32779;52.264;6.154;2023-06-22T06:47:51;21.40;99.90
47022;DHT22;32779;52.264;6.154;2023-06-22T06:50:17;21.60;99.90
47022;DHT22;32779;52.264;6.154;2023-06-22T06:52:43;21.80;99.90
47022;DHT22;32779;52.264;6.154;2023-06-22T06:55:09;22.00;99.90
47022;DHT22;32779;52.264;6.154;2023-06-22T06:57:42;22.20;99.90
47022;DHT22;32779;52.264;6.154;2023-06-22T07:00:11;22.30;99.90
47022;DHT22;32779;52.264;6.154;2023-06-22T07:02:43;22.60;99.90
47022;DHT22;32779;52.264;6.154;2023-06-22T07:05:10;22.80;99.90
47022;DHT22;32779;52.264;6.154;2023-06-22T07:07:39;22.90;99.90
47022;DHT22;32779;52.264;6.154;2023-06-22T07:10:05;23.10;99.90
47022;DHT22;32779;52.264;6.154;2023-06-22T07:12:31;23.30;99.90
47022;DHT22;32779;52.264;6.154;2023-06-22T07:15:23;23.50;99.90
47022;DHT22;32779;52.264;6.154;2023-06-22T07:17:48;23.60;99.90
47022;DHT22;32779;52.264;6.154;2023-06-22T07:20:16;23.70;99.90
47022;DHT22;32779;52.264;6.154;2023-06-22T07:22:44;23.90;99.90
47022;DHT22;32779;52.264;6.154;2023-06-22T07:25:12;24.00;99.90
47022;DHT22;32779;52.264;6.154;2023-06-22T07:27:56;24.00;99.90
47022;DHT22;32779;52.264;6.154;2023-06-22T07:30:25;24.20;99.90
47022;DHT22;32779;52.264;6.154;2023-06-22T07:32:54;24.30;99.90
47022;DHT22;32779;52.264;6.154;2023-06-22T07:35:20;24.40;99.90
47022;DHT22;32779;52.264;6.154;2023-06-22T07:37:45;24.50;99.90
47022;DHT22;32779;52.264;6.154;2023-06-22T07:40:11;24.60;99.90
47022;DHT22;32779;52.264;6.154;2023-06-22T07:42:37;24.60;99.90
47022;DHT22;32779;52.264;6.154;2023-06-22T07:45:04;24.50;99.90
47022;DHT22;32779;52.264;6.154;2023-06-22T07:47:31;24.50;99.90
47022;DHT22;32779;52.264;6.154;2023-06-22T07:50:00;24.40;99.90
47022;DHT22;32779;52.264;6.154;2023-06-22T07:52:27;24.40;99.90
47022;DHT22;32779;52.264;6.154;2023-06-22T07:54:53;24.50;99.90
47022;DHT22;32779;52.264;6.154;2023-06-22T07:57:20;24.50;99.90
47022;DHT22;32779;52.264;6.154;2023-06-22T07:59:45;24.40;99.90
47022;DHT22;32779;52.264;6.154;2023-06-22T08:02:11;24.30;99.90
47022;DHT22;32779;52.264;6.154;2023-06-22T08:04:37;24.20;99.90
47022;DHT22;32779;52.264;6.154;2023-06-22T08:07:03;24.30;99.90
47022;DHT22;32779;52.264;6.154;2023-06-22T08:09:30;24.40;99.90
47022;DHT22;32779;52.264;6.154;2023-06-22T08:12:02;24.50;99.90
47022;DHT22;32779;52.264;6.154;2023-06-22T08:14:30;24.70;99.90
47022;DHT22;32779;52.264;6.154;2023-06-22T08:16:55;24.70;99.90
47022;DHT22;32779;52.264;6.154;2023-06-22T08:19:21;24.70;99.90
47022;DHT22;32779;52.264;6.154;2023-06-22T08:21:47;24.70;99.90
47022;DHT22;32779;52.264;6.154;2023-06-22T08:24:12;24.70;99.90
47022;DHT22;32779;52.264;6.154;2023-06-22T08:26:38;24.80;99.90
47022;DHT22;32779;52.264;6.154;2023-06-22T08:29:04;24.70;99.90
47022;DHT22;32779;52.264;6.154;2023-06-22T08:31:30;24.90;99.90
47022;DHT22;32779;52.264;6.154;2023-06-22T08:33:56;25.20;99.90
47022;DHT22;32779;52.264;6.154;2023-06-22T08:36:22;25.50;99.90
47022;DHT22;32779;52.264;6.154;2023-06-22T08:38:47;25.70;99.90
47022;DHT22;32779;52.264;6.154;2023-06-22T08:41:17;25.80;99.90
47022;DHT22;32779;52.264;6.154;2023-06-22T08:43:43;26.00;99.70
47022;DHT22;32779;52.264;6.154;2023-06-22T08:46:10;26.10;99.30
47022;DHT22;32779;52.264;6.154;2023-06-22T08:48:36;26.10;99.20
47022;DHT22;32779;52.264;6.154;2023-06-22T08:51:02;26.10;99.10
47022;DHT22;32779;52.264;6.154;2023-06-22T08:53:28;26.10;98.70
47022;DHT22;32779;52.264;6.154;2023-06-22T08:55:54;26.10;99.30
47022;DHT22;32779;52.264;6.154;2023-06-22T08:58:20;26.10;98.60
47022;DHT22;32779;52.264;6.154;2023-06-22T09:00:47;26.00;99.30
47022;DHT22;32779;52.264;6.154;2023-06-22T09:03:13;25.90;99.20
47022;DHT22;32779;52.264;6.154;2023-06-22T09:05:38;26.10;99.40
47022;DHT22;32779;52.264;6.154;2023-06-22T09:08:04;26.10;99.30
47022;DHT22;32779;52.264;6.154;2023-06-22T09:10:30;26.20;99.00
47022;DHT22;32779;52.264;6.154;2023-06-22T09:12:57;26.20;98.40
47022;DHT22;32779;52.264;6.154;2023-06-22T09:15:23;26.10;98.40
47022;DHT22;32779;52.264;6.154;2023-06-22T09:17:48;25.90;98.40
47022;DHT22;32779;52.264;6.154;2023-06-22T09:20:14;25.90;99.10
47022;DHT22;32779;52.264;6.154;2023-06-22T09:22:41;26.00;98.00
47022;DHT22;32779;52.264;6.154;2023-06-22T09:25:06;26.00;98.40
47022;DHT22;32779;52.264;6.154;2023-06-22T09:27:32;26.00;98.30
47022;DHT22;32779;52.264;6.154;2023-06-22T09:29:58;26.00;98.60
47022;DHT22;32779;52.264;6.154;2023-06-22T09:32:24;26.00;98.40
47022;DHT22;32779;52.264;6.154;2023-06-22T09:34:51;25.70;98.50
47022;DHT22;32779;52.264;6.154;2023-06-22T09:37:16;25.50;98.70
47022;DHT22;32779;52.264;6.154;2023-06-22T09:39:42;25.50;98.50
47022;DHT22;32779;52.264;6.154;2023-06-22T09:42:08;25.40;98.70
47022;DHT22;32779;52.264;6.154;2023-06-22T09:44:33;25.40;98.80
47022;DHT22;32779;52.264;6.154;2023-06-22T09:46:59;25.50;99.10
47022;DHT22;32779;52.264;6.154;2023-06-22T09:49:25;25.60;98.20
47022;DHT22;32779;52.264;6.154;2023-06-22T09:51:51;25.50;98.40
47022;DHT22;32779;52.264;6.154;2023-06-22T09:54:17;25.50;99.30
47022;DHT22;32779;52.264;6.154;2023-06-22T09:56:43;25.50;99.30
47022;DHT22;32779;52.264;6.154;2023-06-22T09:59:09;25.70;99.10
47022;DHT22;32779;52.264;6.154;2023-06-22T10:01:37;25.80;99.20
47022;DHT22;32779;52.264;6.154;2023-06-22T10:04:03;25.90;98.50
47022;DHT22;32779;52.264;6.154;2023-06-22T10:06:29;25.90;98.70
47022;DHT22;32779;52.264;6.154;2023-06-22T10:08:54;25.90;98.90
47022;DHT22;32779;52.264;6.154;2023-06-22T10:11:20;26.10;98.70
47022;DHT22;32779;52.264;6.154;2023-06-22T10:13:45;26.10;99.00
47022;DHT22;32779;52.264;6.154;2023-06-22T10:16:11;26.30;99.60
47022;DHT22;32779;52.264;6.154;2023-06-22T10:18:39;26.30;98.30
47022;DHT22;32779;52.264;6.154;2023-06-22T10:21:05;26.30;98.30
47022;DHT22;32779;52.264;6.154;2023-06-22T10:23:30;26.20;98.00
47022;DHT22;32779;52.264;6.154;2023-06-22T10:25:56;26.30;98.10
47022;DHT22;32779;52.264;6.154;2023-06-22T10:28:23;26.40;98.20
47022;DHT22;32779;52.264;6.154;2023-06-22T10:30:49;26.30;97.10
47022;DHT22;32779;52.264;6.154;2023-06-22T10:33:14;26.20;97.70
47022;DHT22;32779;52.264;6.154;2023-06-22T10:35:40;26.10;98.10
47022;DHT22;32779;52.264;6.154;2023-06-22T10:38:06;26.20;98.10
47022;DHT22;32779;52.264;6.154;2023-06-22T10:40:32;26.00;97.80
47022;DHT22;32779;52.264;6.154;2023-06-22T10:42:57;26.00;98.10
47022;DHT22;32779;52.264;6.154;2023-06-22T10:45:23;25.90;97.90
47022;DHT22;32779;52.264;6.154;2023-06-22T10:47:49;25.90;98.70
47022;DHT22;32779;52.264;6.154;2023-06-22T10:50:14;25.90;98.00
47022;DHT22;32779;52.264;6.154;2023-06-22T10:52:42;25.90;98.00
47022;DHT22;32779;52.264;6.154;2023-06-22T10:55:09;26.00;98.50
47022;DHT22;32779;52.264;6.154;2023-06-22T10:57:35;25.80;97.50
47022;DHT22;32779;52.264;6.154;2023-06-22T11:00:03;25.80;98.30
47022;DHT22;32779;52.264;6.154;2023-06-22T11:02:31;25.80;98.60
47022;DHT22;32779;52.264;6.154;2023-06-22T11:04:57;25.70;98.60
47022;DHT22;32779;52.264;6.154;2023-06-22T11:07:26;25.70;98.70
47022;DHT22;32779;52.264;6.154;2023-06-22T11:09:54;25.80;98.50
47022;DHT22;32779;52.264;6.154;2023-06-22T11:12:20;25.80;98.30
47022;DHT22;32779;52.264;6.154;2023-06-22T11:14:45;25.80;98.40
47022;DHT22;32779;52.264;6.154;2023-06-22T11:17:11;25.80;98.70
47022;DHT22;32779;52.264;6.154;2023-06-22T11:19:39;25.90;98.90
47022;DHT22;32779;52.264;6.154;2023-06-22T11:22:05;26.00;98.40
47022;DHT22;32779;52.264;6.154;2023-06-22T11:24:31;25.90;98.00
47022;DHT22;32779;52.264;6.154;2023-06-22T11:26:57;26.00;98.70
47022;DHT22;32779;52.264;6.154;2023-06-22T11:29:25;26.10;97.90
47022;DHT22;32779;52.264;6.154;2023-06-22T11:31:50;26.20;98.30
47022;DHT22;32779;52.264;6.154;2023-06-22T11:34:16;26.30;98.00
47022;DHT22;32779;52.264;6.154;2023-06-22T11:36:42;26.50;98.40
47022;DHT22;32779;52.264;6.154;2023-06-22T11:39:09;26.60;97.20
47022;DHT22;32779;52.264;6.154;2023-06-22T11:41:38;26.60;97.10
47022;DHT22;32779;52.264;6.154;2023-06-22T11:44:03;26.70;97.70
47022;DHT22;32779;52.264;6.154;2023-06-22T11:46:32;26.80;97.30
47022;DHT22;32779;52.264;6.154;2023-06-22T11:48:58;26.80;96.80
47022;DHT22;32779;52.264;6.154;2023-06-22T11:51:25;26.70;96.40
47022;DHT22;32779;52.264;6.154;2023-06-22T11:53:50;26.60;97.20
47022;DHT22;32779;52.264;6.154;2023-06-22T11:56:16;26.50;97.30
47022;DHT22;32779;52.264;6.154;2023-06-22T11:58:44;26.60;97.90
47022;DHT22;32779;52.264;6.154;2023-06-22T12:01:10;26.40;96.10
47022;DHT22;32779;52.264;6.154;2023-06-22T12:03:35;26.20;96.20
47022;DHT22;32779;52.264;6.154;2023-06-22T12:06:01;26.20;96.30
47022;DHT22;32779;52.264;6.154;2023-06-22T12:08:26;26.10;96.40
47022;DHT22;32779;52.264;6.154;2023-06-22T12:10:52;26.00;96.30
47022;DHT22;32779;52.264;6.154;2023-06-22T12:13:21;25.90;97.00
47022;DHT22;32779;52.264;6.154;2023-06-22T12:15:47;25.90;96.90
47022;DHT22;32779;52.264;6.154;2023-06-22T12:18:12;25.90;97.00
47022;DHT22;32779;52.264;6.154;2023-06-22T12:20:40;25.80;97.20
47022;DHT22;32779;52.264;6.154;2023-06-22T12:23:06;25.80;96.90
47022;DHT22;32779;52.264;6.154;2023-06-22T12:25:31;25.70;97.60
47022;DHT22;32779;52.264;6.154;2023-06-22T12:28:00;25.60;97.70
47022;DHT22;32779;52.264;6.154;2023-06-22T12:30:25;25.70;99.70
47022;DHT22;32779;52.264;6.154;2023-06-22T12:32:53;25.60;98.20
47022;DHT22;32779;52.264;6.154;2023-06-22T12:35:19;25.60;98.30
47022;DHT22;32779;52.264;6.154;2023-06-22T12:37:45;25.60;98.60
47022;DHT22;32779;52.264;6.154;2023-06-22T12:40:11;25.50;98.30
47022;DHT22;32779;52.264;6.154;2023-06-22T12:42:36;25.60;98.00
47022;DHT22;32779;52.264;6.154;2023-06-22T12:45:02;25.50;98.40
47022;DHT22;32779;52.264;6.154;2023-06-22T12:47:28;25.50;98.30
47022;DHT22;32779;52.264;6.154;2023-06-22T12:49:54;25.50;98.50
47022;DHT22;32779;52.264;6.154;2023-06-22T12:52:19;25.40;98.00
47022;DHT22;32779;52.264;6.154;2023-06-22T12:54:48;25.30;97.90
47022;DHT22;32779;52.264;6.154;2023-06-22T12:57:14;25.30;98.40
47022;DHT22;32779;52.264;6.154;2023-06-22T12:59:39;25.20;98.60
47022;DHT22;32779;52.264;6.154;2023-06-22T13:02:05;25.20;99.30
47022;DHT22;32779;52.264;6.154;2023-06-22T13:04:31;25.20;99.90
47022;DHT22;32779;52.264;6.154;2023-06-22T13:06:56;25.20;99.90
47022;DHT22;32779;52.264;6.154;2023-06-22T13:09:22;25.20;99.90
47022;DHT22;32779;52.264;6.154;2023-06-22T13:11:48;25.20;99.90
47022;DHT22;32779;52.264;6.154;2023-06-22T13:14:13;25.00;99.90
47022;DHT22;32779;52.264;6.154;2023-06-22T13:16:41;25.00;99.90
47022;DHT22;32779;52.264;6.154;2023-06-22T13:19:07;24.80;99.90
47022;DHT22;32779;52.264;6.154;2023-06-22T13:21:32;24.70;99.90
47022;DHT22;32779;52.264;6.154;2023-06-22T13:23:59;24.50;99.90
47022;DHT22;32779;52.264;6.154;2023-06-22T13:26:25;24.40;99.90
47022;DHT22;32779;52.264;6.154;2023-06-22T13:28:50;24.30;99.90
47022;DHT22;32779;52.264;6.154;2023-06-22T13:31:16;24.20;99.90
47022;DHT22;32779;52.264;6.154;2023-06-22T13:33:44;23.90;99.90
47022;DHT22;32779;52.264;6.154;2023-06-22T13:36:13;23.80;99.90
47022;DHT22;32779;52.264;6.154;2023-06-22T13:38:39;23.50;99.90
47022;DHT22;32779;52.264;6.154;2023-06-22T13:41:05;23.20;99.90
47022;DHT22;32779;52.264;6.154;2023-06-22T13:43:30;23.00;99.90
47022;DHT22;32779;52.264;6.154;2023-06-22T13:45:56;22.70;99.90
47022;DHT22;32779;52.264;6.154;2023-06-22T13:48:22;22.60;99.90
47022;DHT22;32779;52.264;6.154;2023-06-22T13:50:49;22.40;99.90
47022;DHT22;32779;52.264;6.154;2023-06-22T13:53:14;22.50;99.90
47022;DHT22;32779;52.264;6.154;2023-06-22T13:55:40;22.40;99.90
47022;DHT22;32779;52.264;6.154;2023-06-22T13:58:06;22.40;99.90
47022;DHT22;32779;52.264;6.154;2023-06-22T14:00:32;22.40;99.90
47022;DHT22;32779;52.264;6.154;2023-06-22T14:02:58;22.30;99.90
47022;DHT22;32779;52.264;6.154;2023-06-22T14:05:23;22.20;99.90
47022;DHT22;32779;52.264;6.154;2023-06-22T14:07:49;22.20;99.90
47022;DHT22;32779;52.264;6.154;2023-06-22T14:10:15;22.10;99.90
47022;DHT22;32779;52.264;6.154;2023-06-22T14:12:40;21.90;99.90
47022;DHT22;32779;52.264;6.154;2023-06-22T14:15:06;21.90;99.90
47022;DHT22;32779;52.264;6.154;2023-06-22T14:17:32;21.80;99.90
47022;DHT22;32779;52.264;6.154;2023-06-22T14:19:58;21.70;99.90
47022;DHT22;32779;52.264;6.154;2023-06-22T14:22:23;21.70;99.90
47022;DHT22;32779;52.264;6.154;2023-06-22T14:24:49;21.70;99.90
47022;DHT22;32779;52.264;6.154;2023-06-22T14:27:15;21.60;99.90
47022;DHT22;32779;52.264;6.154;2023-06-22T14:29:41;21.50;99.90
47022;DHT22;32779;52.264;6.154;2023-06-22T14:32:07;21.50;99.90
47022;DHT22;32779;52.264;6.154;2023-06-22T14:34:34;21.50;99.90
47022;DHT22;32779;52.264;6.154;2023-06-22T14:37:06;21.50;99.90
47022;DHT22;32779;52.264;6.154;2023-06-22T14:39:32;21.50;99.90
47022;DHT22;32779;52.264;6.154;2023-06-22T14:41:58;21.40;99.90
47022;DHT22;32779;52.264;6.154;2023-06-22T14:44:23;21.40;99.90
47022;DHT22;32779;52.264;6.154;2023-06-22T14:46:49;21.40;99.90
47022;DHT22;32779;52.264;6.154;2023-06-22T14:49:14;21.40;99.90
47022;DHT22;32779;52.264;6.154;2023-06-22T14:51:40;21.40;99.90
47022;DHT22;32779;52.264;6.154;2023-06-22T14:54:06;21.30;99.90
47022;DHT22;32779;52.264;6.154;2023-06-22T14:56:31;21.30;99.90
47022;DHT22;32779;52.264;6.154;2023-06-22T14:58:57;21.30;99.90
47022;DHT22;32779;52.264;6.154;2023-06-22T15:01:23;21.30;99.90
47022;DHT22;32779;52.264;6.154;2023-06-22T15:03:51;21.20;99.90
47022;DHT22;32779;52.264;6.154;2023-06-22T15:06:17;21.20;99.90
47022;DHT22;32779;52.264;6.154;2023-06-22T15:08:43;21.20;99.90
47022;DHT22;32779;52.264;6.154;2023-06-22T15:11:08;21.10;99.90
47022;DHT22;32779;52.264;6.154;2023-06-22T15:13:35;21.10;99.90
47022;DHT22;32779;52.264;6.154;2023-06-22T15:16:04;21.10;99.90
47022;DHT22;32779;52.264;6.154;2023-06-22T15:18:30;21.00;99.90
47022;DHT22;32779;52.264;6.154;2023-06-22T15:20:56;21.00;99.90
47022;DHT22;32779;52.264;6.154;2023-06-22T15:23:24;20.90;99.90
47022;DHT22;32779;52.264;6.154;2023-06-22T15:25:51;20.90;99.90
47022;DHT22;32779;52.264;6.154;2023-06-22T15:28:17;20.80;99.90
47022;DHT22;32779;52.264;6.154;2023-06-22T15:30:43;20.80;99.90
47022;DHT22;32779;52.264;6.154;2023-06-22T15:33:11;20.80;99.90
47022;DHT22;32779;52.264;6.154;2023-06-22T15:35:37;20.80;99.90
47022;DHT22;32779;52.264;6.154;2023-06-22T15:38:02;20.70;99.90